sensor_id;sensor_type;location;lat;lon;timestamp;P1;durP1;ratioP1;P2;durP2;ratioP2
5900;SDS011;2976;49.764;9.796;2024-03-23T00:52:08;6.73;;;5.13;;
5900;SDS011;2976;49.764;9.796;2024-03-23T00:54:34;9.20;;;5.20;;
5900;SDS011;2976;49.764;9.796;2024-03-23T00:57:00;6.90;;;5.00;;
5900;SDS011;2976;49.764;9.796;2024-03-23T00:59:25;7.27;;;5.30;;
5900;SDS011;2976;49.764;9.796;2024-03-23T01:01:53;9.07;;;5.57;;
5900;SDS011;2976;49.764;9.796;2024-03-23T01:04:21;8.20;;;5.23;;
5900;SDS011;2976;49.764;9.796;2024-03-23T01:06:47;6.90;;;5.77;;
5900;SDS011;2976;49.764;9.796;2024-03-23T01:09:13;9.30;;;6.17;;
5900;SDS011;2976;49.764;9.796;2024-03-23T01:11:38;8.90;;;6.10;;
5900;SDS011;2976;49.764;9.796;2024-03-23T01:14:04;10.90;;;7.43;;
5900;SDS011;2976;49.764;9.796;2024-03-23T01:16:31;27.43;;;6.47;;
5900;SDS011;2976;49.764;9.796;2024-03-23T01:18:57;8.10;;;5.93;;
5900;SDS011;2976;49.764;9.796;2024-03-23T01:21:22;7.90;;;5.80;;
5900;SDS011;2976;49.764;9.796;2024-03-23T01:23:48;12.00;;;6.70;;
5900;SDS011;2976;49.764;9.796;2024-03-23T01:26:13;10.23;;;6.50;;
5900;SDS011;2976;49.764;9.796;2024-03-23T01:28:39;11.17;;;6.33;;
5900;SDS011;2976;49.764;9.796;2024-03-23T01:31:05;10.03;;;5.87;;
5900;SDS011;2976;49.764;9.796;2024-03-23T01:33:31;12.40;;;7.10;;
5900;SDS011;2976;49.764;9.796;2024-03-23T01:35:56;9.70;;;6.70;;
5900;SDS011;2976;49.764;9.796;2024-03-23T01:38:22;9.67;;;7.10;;
5900;SDS011;2976;49.764;9.796;2024-03-23T01:40:47;9.13;;;6.40;;
5900;SDS011;2976;49.764;9.796;2024-03-23T01:43:13;11.93;;;5.93;;
5900;SDS011;2976;49.764;9.796;2024-03-23T01:45:38;10.03;;;6.20;;
5900;SDS011;2976;49.764;9.796;2024-03-23T01:48:04;11.60;;;6.23;;
5900;SDS011;2976;49.764;9.796;2024-03-23T01:50:30;13.20;;;7.07;;
5900;SDS011;2976;49.764;9.796;2024-03-23T01:53:02;11.43;;;6.40;;
5900;SDS011;2976;49.764;9.796;2024-03-23T01:55:30;7.77;;;5.47;;
5900;SDS011;2976;49.764;9.796;2024-03-23T01:57:57;9.60;;;6.07;;
5900;SDS011;2976;49.764;9.796;2024-03-23T02:00:22;10.47;;;5.93;;
5900;SDS011;2976;49.764;9.796;2024-03-23T02:02:48;9.10;;;5.73;;
5900;SDS011;2976;49.764;9.796;2024-03-23T02:05:14;8.50;;;5.50;;
5900;SDS011;2976;49.764;9.796;2024-03-23T02:07:40;16.33;;;8.47;;
5900;SDS011;2976;49.764;9.796;2024-03-23T02:10:09;8.20;;;6.20;;
5900;SDS011;2976;49.764;9.796;2024-03-23T02:12:37;11.00;;;6.30;;
5900;SDS011;2976;49.764;9.796;2024-03-23T02:15:04;9.70;;;5.73;;
5900;SDS011;2976;49.764;9.796;2024-03-23T02:17:30;8.40;;;5.90;;
5900;SDS011;2976;49.764;9.796;2024-03-23T02:19:57;11.87;;;5.27;;
5900;SDS011;2976;49.764;9.796;2024-03-23T02:22:22;10.37;;;5.70;;
5900;SDS011;2976;49.764;9.796;2024-03-23T02:24:48;6.40;;;5.30;;
5900;SDS011;2976;49.764;9.796;2024-03-23T02:27:13;8.80;;;5.87;;
5900;SDS011;2976;49.764;9.796;2024-03-23T02:29:39;9.00;;;5.03;;
5900;SDS011;2976;49.764;9.796;2024-03-23T02:32:05;8.20;;;5.60;;
5900;SDS011;2976;49.764;9.796;2024-03-23T02:34:31;9.80;;;5.07;;
5900;SDS011;2976;49.764;9.796;2024-03-23T02:36:57;8.60;;;5.47;;
5900;SDS011;2976;49.764;9.796;2024-03-23T02:39:22;6.17;;;4.97;;
5900;SDS011;2976;49.764;9.796;2024-03-23T02:41:48;9.60;;;5.60;;
5900;SDS011;2976;49.764;9.796;2024-03-23T02:44:13;7.50;;;4.90;;
5900;SDS011;2976;49.764;9.796;2024-03-23T02:46:39;11.77;;;5.53;;
5900;SDS011;2976;49.764;9.796;2024-03-23T02:49:04;13.37;;;6.30;;
5900;SDS011;2976;49.764;9.796;2024-03-23T02:51:30;7.13;;;4.60;;
5900;SDS011;2976;49.764;9.796;2024-03-23T02:53:56;6.43;;;5.03;;
5900;SDS011;2976;49.764;9.796;2024-03-23T02:56:22;11.63;;;4.60;;
5900;SDS011;2976;49.764;9.796;2024-03-23T02:58:48;10.07;;;5.17;;
5900;SDS011;2976;49.764;9.796;2024-03-23T03:01:13;8.20;;;5.00;;
5900;SDS011;2976;49.764;9.796;2024-03-23T03:03:39;6.27;;;4.63;;
5900;SDS011;2976;49.764;9.796;2024-03-23T03:06:04;5.13;;;4.50;;
5900;SDS011;2976;49.764;9.796;2024-03-23T03:08:30;8.33;;;5.20;;
5900;SDS011;2976;49.764;9.796;2024-03-23T03:10:56;21.83;;;5.23;;
5900;SDS011;2976;49.764;9.796;2024-03-23T03:13:21;13.60;;;5.13;;
5900;SDS011;2976;49.764;9.796;2024-03-23T03:15:47;6.80;;;5.47;;
5900;SDS011;2976;49.764;9.796;2024-03-23T03:18:12;8.37;;;5.63;;
5900;SDS011;2976;49.764;9.796;2024-03-23T03:20:38;8.27;;;5.30;;
5900;SDS011;2976;49.764;9.796;2024-03-23T03:23:04;6.17;;;4.50;;
5900;SDS011;2976;49.764;9.796;2024-03-23T03:25:30;10.77;;;5.60;;
5900;SDS011;2976;49.764;9.796;2024-03-23T03:27:56;9.00;;;5.53;;
5900;SDS011;2976;49.764;9.796;2024-03-23T03:30:22;9.00;;;5.27;;
5900;SDS011;2976;49.764;9.796;2024-03-23T03:32:47;9.83;;;5.70;;
5900;SDS011;2976;49.764;9.796;2024-03-23T03:35:14;9.77;;;5.90;;
5900;SDS011;2976;49.764;9.796;2024-03-23T03:37:39;10.43;;;5.43;;
5900;SDS011;2976;49.764;9.796;2024-03-23T03:40:05;11.30;;;6.30;;
5900;SDS011;2976;49.764;9.796;2024-03-23T03:42:33;8.80;;;5.90;;
5900;SDS011;2976;49.764;9.796;2024-03-23T03:44:59;12.17;;;6.00;;
5900;SDS011;2976;49.764;9.796;2024-03-23T03:47:25;8.93;;;5.07;;
5900;SDS011;2976;49.764;9.796;2024-03-23T03:49:50;15.57;;;5.83;;
5900;SDS011;2976;49.764;9.796;2024-03-23T03:52:16;10.07;;;5.57;;
5900;SDS011;2976;49.764;9.796;2024-03-23T03:54:41;8.93;;;5.87;;
5900;SDS011;2976;49.764;9.796;2024-03-23T03:57:07;6.47;;;4.57;;
5900;SDS011;2976;49.764;9.796;2024-03-23T03:59:33;10.90;;;6.10;;
5900;SDS011;2976;49.764;9.796;2024-03-23T04:01:58;7.73;;;5.43;;
5900;SDS011;2976;49.764;9.796;2024-03-23T04:04:24;15.67;;;6.40;;
5900;SDS011;2976;49.764;9.796;2024-03-23T04:06:49;12.13;;;5.90;;
5900;SDS011;2976;49.764;9.796;2024-03-23T04:09:15;15.37;;;6.67;;
5900;SDS011;2976;49.764;9.796;2024-03-23T04:11:40;13.03;;;5.80;;
5900;SDS011;2976;49.764;9.796;2024-03-23T04:14:06;10.30;;;5.30;;
5900;SDS011;2976;49.764;9.796;2024-03-23T04:16:34;13.27;;;6.63;;
5900;SDS011;2976;49.764;9.796;2024-03-23T04:19:00;12.13;;;6.63;;
5900;SDS011;2976;49.764;9.796;2024-03-23T04:21:26;10.53;;;5.70;;
5900;SDS011;2976;49.764;9.796;2024-03-23T04:23:51;11.57;;;5.57;;
5900;SDS011;2976;49.764;9.796;2024-03-23T04:26:17;8.50;;;5.50;;
5900;SDS011;2976;49.764;9.796;2024-03-23T04:28:42;7.83;;;5.80;;
5900;SDS011;2976;49.764;9.796;2024-03-23T04:31:09;10.47;;;6.00;;
5900;SDS011;2976;49.764;9.796;2024-03-23T04:33:34;13.63;;;7.03;;
5900;SDS011;2976;49.764;9.796;2024-03-23T04:36:00;10.10;;;6.93;;
5900;SDS011;2976;49.764;9.796;2024-03-23T04:38:26;9.50;;;5.83;;
5900;SDS011;2976;49.764;9.796;2024-03-23T04:40:55;6.93;;;5.67;;
5900;SDS011;2976;49.764;9.796;2024-03-23T04:43:21;9.50;;;7.10;;
5900;SDS011;2976;49.764;9.796;2024-03-23T04:45:46;13.87;;;7.13;;
5900;SDS011;2976;49.764;9.796;2024-03-23T04:48:12;9.83;;;6.07;;
5900;SDS011;2976;49.764;9.796;2024-03-23T04:50:38;15.23;;;6.63;;
5900;SDS011;2976;49.764;9.796;2024-03-23T04:53:03;9.63;;;6.57;;
5900;SDS011;2976;49.764;9.796;2024-03-23T04:55:29;9.20;;;5.73;;
5900;SDS011;2976;49.764;9.796;2024-03-23T04:57:56;22.63;;;7.77;;
5900;SDS011;2976;49.764;9.796;2024-03-23T05:00:21;9.70;;;6.17;;
5900;SDS011;2976;49.764;9.796;2024-03-23T05:02:48;10.23;;;7.23;;
5900;SDS011;2976;49.764;9.796;2024-03-23T05:05:14;14.80;;;7.53;;
5900;SDS011;2976;49.764;9.796;2024-03-23T05:07:39;12.10;;;7.20;;
5900;SDS011;2976;49.764;9.796;2024-03-23T05:10:06;15.37;;;6.67;;
5900;SDS011;2976;49.764;9.796;2024-03-23T05:12:36;12.90;;;6.70;;
5900;SDS011;2976;49.764;9.796;2024-03-23T05:15:02;9.90;;;6.37;;
5900;SDS011;2976;49.764;9.796;2024-03-23T05:17:29;11.47;;;7.17;;
5900;SDS011;2976;49.764;9.796;2024-03-23T05:19:54;9.80;;;7.07;;
5900;SDS011;2976;49.764;9.796;2024-03-23T05:22:20;9.70;;;7.17;;
5900;SDS011;2976;49.764;9.796;2024-03-23T05:24:45;13.17;;;7.50;;
5900;SDS011;2976;49.764;9.796;2024-03-23T05:27:11;10.87;;;7.33;;
5900;SDS011;2976;49.764;9.796;2024-03-23T05:29:37;14.57;;;8.00;;
5900;SDS011;2976;49.764;9.796;2024-03-23T05:32:03;14.17;;;7.43;;
5900;SDS011;2976;49.764;9.796;2024-03-23T05:34:29;12.00;;;7.63;;
5900;SDS011;2976;49.764;9.796;2024-03-23T05:36:54;11.57;;;6.93;;
5900;SDS011;2976;49.764;9.796;2024-03-23T05:39:20;16.93;;;7.50;;
5900;SDS011;2976;49.764;9.796;2024-03-23T05:41:47;11.27;;;7.00;;
5900;SDS011;2976;49.764;9.796;2024-03-23T05:44:13;19.93;;;6.87;;
5900;SDS011;2976;49.764;9.796;2024-03-23T05:46:40;11.20;;;6.73;;
5900;SDS011;2976;49.764;9.796;2024-03-23T05:49:05;11.50;;;6.83;;
5900;SDS011;2976;49.764;9.796;2024-03-23T05:51:31;11.40;;;6.27;;
5900;SDS011;2976;49.764;9.796;2024-03-23T05:53:57;12.23;;;6.10;;
5900;SDS011;2976;49.764;9.796;2024-03-23T05:56:22;9.27;;;6.00;;
5900;SDS011;2976;49.764;9.796;2024-03-23T05:58:48;9.57;;;6.57;;
5900;SDS011;2976;49.764;9.796;2024-03-23T06:01:13;7.60;;;4.70;;
5900;SDS011;2976;49.764;9.796;2024-03-23T06:03:39;5.77;;;3.67;;
5900;SDS011;2976;49.764;9.796;2024-03-23T06:06:04;6.07;;;3.70;;
5900;SDS011;2976;49.764;9.796;2024-03-23T06:08:35;8.00;;;3.90;;
5900;SDS011;2976;49.764;9.796;2024-03-23T06:11:01;6.03;;;4.00;;
5900;SDS011;2976;49.764;9.796;2024-03-23T06:13:26;10.60;;;4.80;;
5900;SDS011;2976;49.764;9.796;2024-03-23T06:15:54;9.70;;;4.50;;
5900;SDS011;2976;49.764;9.796;2024-03-23T06:18:20;9.97;;;5.40;;
5900;SDS011;2976;49.764;9.796;2024-03-23T06:20:46;7.73;;;4.60;;
5900;SDS011;2976;49.764;9.796;2024-03-23T06:23:11;8.10;;;4.40;;
5900;SDS011;2976;49.764;9.796;2024-03-23T06:25:37;11.07;;;5.30;;
5900;SDS011;2976;49.764;9.796;2024-03-23T06:28:03;15.23;;;5.50;;
5900;SDS011;2976;49.764;9.796;2024-03-23T06:30:29;7.60;;;4.90;;
5900;SDS011;2976;49.764;9.796;2024-03-23T06:32:56;6.40;;;4.33;;
5900;SDS011;2976;49.764;9.796;2024-03-23T06:35:22;7.27;;;3.90;;
5900;SDS011;2976;49.764;9.796;2024-03-23T06:37:48;4.37;;;3.13;;
5900;SDS011;2976;49.764;9.796;2024-03-23T06:40:13;9.20;;;4.67;;
5900;SDS011;2976;49.764;9.796;2024-03-23T06:42:39;5.97;;;3.40;;
5900;SDS011;2976;49.764;9.796;2024-03-23T06:45:05;3.23;;;2.70;;
5900;SDS011;2976;49.764;9.796;2024-03-23T06:47:31;5.53;;;3.10;;
5900;SDS011;2976;49.764;9.796;2024-03-23T06:49:57;7.07;;;3.70;;
5900;SDS011;2976;49.764;9.796;2024-03-23T06:52:26;6.83;;;3.73;;
5900;SDS011;2976;49.764;9.796;2024-03-23T06:54:52;5.37;;;3.33;;
5900;SDS011;2976;49.764;9.796;2024-03-23T06:57:18;2.83;;;2.60;;
5900;SDS011;2976;49.764;9.796;2024-03-23T06:59:43;6.40;;;3.50;;
5900;SDS011;2976;49.764;9.796;2024-03-23T07:02:09;2.33;;;2.13;;
5900;SDS011;2976;49.764;9.796;2024-03-23T07:04:35;2.00;;;1.80;;
5900;SDS011;2976;49.764;9.796;2024-03-23T07:07:01;5.83;;;2.17;;
5900;SDS011;2976;49.764;9.796;2024-03-23T07:09:27;1.10;;;1.10;;
5900;SDS011;2976;49.764;9.796;2024-03-23T07:11:54;1.37;;;1.30;;
5900;SDS011;2976;49.764;9.796;2024-03-23T07:14:21;1.23;;;1.00;;
5900;SDS011;2976;49.764;9.796;2024-03-23T07:16:47;3.50;;;1.50;;
5900;SDS011;2976;49.764;9.796;2024-03-23T07:19:14;0.93;;;0.90;;
5900;SDS011;2976;49.764;9.796;2024-03-23T07:21:41;0.67;;;0.67;;
5900;SDS011;2976;49.764;9.796;2024-03-23T07:24:07;1.10;;;0.93;;
5900;SDS011;2976;49.764;9.796;2024-03-23T07:26:33;0.90;;;0.90;;
5900;SDS011;2976;49.764;9.796;2024-03-23T07:28:58;0.60;;;0.60;;
5900;SDS011;2976;49.764;9.796;2024-03-23T07:31:24;0.67;;;0.67;;
5900;SDS011;2976;49.764;9.796;2024-03-23T07:33:50;0.60;;;0.60;;
5900;SDS011;2976;49.764;9.796;2024-03-23T07:36:15;0.53;;;0.53;;
5900;SDS011;2976;49.764;9.796;2024-03-23T07:38:41;0.40;;;0.40;;
5900;SDS011;2976;49.764;9.796;2024-03-23T07:41:10;0.50;;;0.50;;
5900;SDS011;2976;49.764;9.796;2024-03-23T07:43:37;0.30;;;0.30;;
5900;SDS011;2976;49.764;9.796;2024-03-23T07:46:04;0.33;;;0.33;;
5900;SDS011;2976;49.764;9.796;2024-03-23T07:48:30;1.17;;;0.60;;
5900;SDS011;2976;49.764;9.796;2024-03-23T07:51:03;0.80;;;0.47;;
5900;SDS011;2976;49.764;9.796;2024-03-23T07:53:32;0.27;;;0.27;;
5900;SDS011;2976;49.764;9.796;2024-03-23T07:55:59;0.60;;;0.50;;
5900;SDS011;2976;49.764;9.796;2024-03-23T07:58:26;0.37;;;0.37;;
5900;SDS011;2976;49.764;9.796;2024-03-23T08:00:53;0.60;;;0.60;;
5900;SDS011;2976;49.764;9.796;2024-03-23T08:03:19;0.30;;;0.30;;
5900;SDS011;2976;49.764;9.796;2024-03-23T08:05:45;0.30;;;0.30;;
5900;SDS011;2976;49.764;9.796;2024-03-23T08:08:11;0.30;;;0.30;;
5900;SDS011;2976;49.764;9.796;2024-03-23T08:10:37;0.40;;;0.37;;
5900;SDS011;2976;49.764;9.796;2024-03-23T08:13:12;0.30;;;0.30;;
5900;SDS011;2976;49.764;9.796;2024-03-23T08:15:38;0.30;;;0.30;;
5900;SDS011;2976;49.764;9.796;2024-03-23T08:18:03;0.30;;;0.30;;
5900;SDS011;2976;49.764;9.796;2024-03-23T08:20:29;0.33;;;0.33;;
5900;SDS011;2976;49.764;9.796;2024-03-23T08:22:55;0.40;;;0.40;;
5900;SDS011;2976;49.764;9.796;2024-03-23T08:25:21;0.50;;;0.30;;
5900;SDS011;2976;49.764;9.796;2024-03-23T08:27:46;0.30;;;0.30;;
5900;SDS011;2976;49.764;9.796;2024-03-23T08:30:12;1.73;;;0.40;;
5900;SDS011;2976;49.764;9.796;2024-03-23T08:32:38;0.40;;;0.40;;
5900;SDS011;2976;49.764;9.796;2024-03-23T08:35:03;0.77;;;0.40;;
5900;SDS011;2976;49.764;9.796;2024-03-23T08:37:29;0.40;;;0.40;;
5900;SDS011;2976;49.764;9.796;2024-03-23T08:39:55;0.50;;;0.50;;
5900;SDS011;2976;49.764;9.796;2024-03-23T08:42:20;0.50;;;0.50;;
5900;SDS011;2976;49.764;9.796;2024-03-23T08:44:46;0.87;;;0.40;;
5900;SDS011;2976;49.764;9.796;2024-03-23T08:47:14;0.40;;;0.40;;
5900;SDS011;2976;49.764;9.796;2024-03-23T08:49:40;0.50;;;0.50;;
5900;SDS011;2976;49.764;9.796;2024-03-23T08:52:06;0.60;;;0.40;;
5900;SDS011;2976;49.764;9.796;2024-03-23T08:54:32;0.70;;;0.70;;
5900;SDS011;2976;49.764;9.796;2024-03-23T08:56:57;0.80;;;0.47;;
5900;SDS011;2976;49.764;9.796;2024-03-23T08:59:23;0.57;;;0.57;;
5900;SDS011;2976;49.764;9.796;2024-03-23T09:01:49;0.50;;;0.40;;
5900;SDS011;2976;49.764;9.796;2024-03-23T09:04:14;0.77;;;0.73;;
5900;SDS011;2976;49.764;9.796;2024-03-23T09:06:42;1.23;;;0.73;;
5900;SDS011;2976;49.764;9.796;2024-03-23T09:09:08;0.60;;;0.43;;
5900;SDS011;2976;49.764;9.796;2024-03-23T09:11:33;1.97;;;0.97;;
5900;SDS011;2976;49.764;9.796;2024-03-23T09:13:59;1.10;;;1.00;;
5900;SDS011;2976;49.764;9.796;2024-03-23T09:16:24;1.33;;;0.93;;
5900;SDS011;2976;49.764;9.796;2024-03-23T09:18:50;0.63;;;0.63;;
5900;SDS011;2976;49.764;9.796;2024-03-23T09:21:16;2.33;;;0.83;;
5900;SDS011;2976;49.764;9.796;2024-03-23T09:23:45;1.83;;;1.23;;
5900;SDS011;2976;49.764;9.796;2024-03-23T09:26:11;3.13;;;1.10;;
5900;SDS011;2976;49.764;9.796;2024-03-23T09:28:37;2.37;;;1.27;;
5900;SDS011;2976;49.764;9.796;2024-03-23T09:31:03;1.10;;;0.70;;
5900;SDS011;2976;49.764;9.796;2024-03-23T09:33:29;2.70;;;1.00;;
5900;SDS011;2976;49.764;9.796;2024-03-23T09:35:55;1.70;;;0.93;;
5900;SDS011;2976;49.764;9.796;2024-03-23T09:38:21;2.53;;;1.20;;
5900;SDS011;2976;49.764;9.796;2024-03-23T09:40:48;3.27;;;0.97;;
5900;SDS011;2976;49.764;9.796;2024-03-23T09:43:18;4.60;;;1.13;;
5900;SDS011;2976;49.764;9.796;2024-03-23T09:45:44;3.90;;;1.10;;
5900;SDS011;2976;49.764;9.796;2024-03-23T09:48:10;3.17;;;0.70;;
5900;SDS011;2976;49.764;9.796;2024-03-23T09:50:39;5.53;;;1.23;;
5900;SDS011;2976;49.764;9.796;2024-03-23T09:53:09;0.90;;;0.90;;
5900;SDS011;2976;49.764;9.796;2024-03-23T09:55:37;5.30;;;1.40;;
5900;SDS011;2976;49.764;9.796;2024-03-23T09:58:03;4.83;;;1.10;;
5900;SDS011;2976;49.764;9.796;2024-03-23T10:00:33;2.03;;;1.77;;
5900;SDS011;2976;49.764;9.796;2024-03-23T10:03:00;8.97;;;1.20;;
5900;SDS011;2976;49.764;9.796;2024-03-23T10:05:29;1.70;;;1.40;;
5900;SDS011;2976;49.764;9.796;2024-03-23T10:08:16;1.20;;;0.90;;
5900;SDS011;2976;49.764;9.796;2024-03-23T10:10:44;3.70;;;1.10;;
5900;SDS011;2976;49.764;9.796;2024-03-23T10:13:10;2.60;;;1.20;;
5900;SDS011;2976;49.764;9.796;2024-03-23T10:15:39;5.47;;;2.20;;
5900;SDS011;2976;49.764;9.796;2024-03-23T10:20:43;2.67;;;2.00;;
5900;SDS011;2976;49.764;9.796;2024-03-23T10:23:17;2.27;;;1.60;;
5900;SDS011;2976;49.764;9.796;2024-03-23T10:25:43;3.47;;;1.70;;
5900;SDS011;2976;49.764;9.796;2024-03-23T10:28:09;4.43;;;2.20;;
5900;SDS011;2976;49.764;9.796;2024-03-23T10:30:36;8.47;;;2.37;;
5900;SDS011;2976;49.764;9.796;2024-03-23T10:33:08;6.50;;;2.23;;
5900;SDS011;2976;49.764;9.796;2024-03-23T10:35:38;7.27;;;2.20;;
5900;SDS011;2976;49.764;9.796;2024-03-23T10:38:04;2.60;;;1.67;;
5900;SDS011;2976;49.764;9.796;2024-03-23T10:40:31;3.80;;;2.20;;
5900;SDS011;2976;49.764;9.796;2024-03-23T10:42:59;1.73;;;1.40;;
5900;SDS011;2976;49.764;9.796;2024-03-23T10:45:25;3.80;;;1.80;;
5900;SDS011;2976;49.764;9.796;2024-03-23T10:47:51;7.70;;;1.77;;
5900;SDS011;2976;49.764;9.796;2024-03-23T10:50:17;1.67;;;1.57;;
5900;SDS011;2976;49.764;9.796;2024-03-23T10:52:45;5.03;;;1.40;;
5900;SDS011;2976;49.764;9.796;2024-03-23T10:55:13;2.80;;;1.03;;
5900;SDS011;2976;49.764;9.796;2024-03-23T10:57:51;6.90;;;1.67;;
5900;SDS011;2976;49.764;9.796;2024-03-23T11:00:19;2.70;;;1.40;;
5900;SDS011;2976;49.764;9.796;2024-03-23T11:02:47;2.67;;;1.47;;
5900;SDS011;2976;49.764;9.796;2024-03-23T11:05:28;2.83;;;1.40;;
5900;SDS011;2976;49.764;9.796;2024-03-23T11:07:55;5.67;;;1.70;;
5900;SDS011;2976;49.764;9.796;2024-03-23T11:10:24;2.83;;;1.67;;
5900;SDS011;2976;49.764;9.796;2024-03-23T11:12:50;1.57;;;1.40;;
5900;SDS011;2976;49.764;9.796;2024-03-23T11:15:16;4.40;;;1.60;;
5900;SDS011;2976;49.764;9.796;2024-03-23T11:17:41;2.20;;;1.80;;
5900;SDS011;2976;49.764;9.796;2024-03-23T11:20:30;2.30;;;1.33;;
5900;SDS011;2976;49.764;9.796;2024-03-23T11:22:57;4.63;;;1.53;;
5900;SDS011;2976;49.764;9.796;2024-03-23T11:25:23;7.97;;;2.00;;
5900;SDS011;2976;49.764;9.796;2024-03-23T11:27:49;2.17;;;1.37;;
5900;SDS011;2976;49.764;9.796;2024-03-23T11:30:17;4.03;;;1.60;;
5900;SDS011;2976;49.764;9.796;2024-03-23T11:32:53;10.53;;;2.20;;
5900;SDS011;2976;49.764;9.796;2024-03-23T11:35:33;4.73;;;2.00;;
5900;SDS011;2976;49.764;9.796;2024-03-23T11:38:09;1.83;;;1.70;;
5900;SDS011;2976;49.764;9.796;2024-03-23T11:40:37;3.97;;;1.60;;
5900;SDS011;2976;49.764;9.796;2024-03-23T11:43:04;4.20;;;1.60;;
5900;SDS011;2976;49.764;9.796;2024-03-23T11:45:35;2.73;;;0.90;;
5900;SDS011;2976;49.764;9.796;2024-03-23T11:48:20;5.30;;;1.50;;
5900;SDS011;2976;49.764;9.796;2024-03-23T11:50:50;9.00;;;1.90;;
5900;SDS011;2976;49.764;9.796;2024-03-23T11:53:23;4.23;;;1.70;;
5900;SDS011;2976;49.764;9.796;2024-03-23T11:55:52;6.90;;;1.70;;
5900;SDS011;2976;49.764;9.796;2024-03-23T11:58:23;4.53;;;1.77;;
5900;SDS011;2976;49.764;9.796;2024-03-23T12:00:50;2.00;;;1.60;;
5900;SDS011;2976;49.764;9.796;2024-03-23T12:03:17;2.00;;;1.50;;
5900;SDS011;2976;49.764;9.796;2024-03-23T12:05:47;4.83;;;1.83;;
5900;SDS011;2976;49.764;9.796;2024-03-23T12:10:50;5.03;;;1.53;;
5900;SDS011;2976;49.764;9.796;2024-03-23T12:13:20;4.93;;;1.60;;
5900;SDS011;2976;49.764;9.796;2024-03-23T12:15:47;1.90;;;1.70;;
5900;SDS011;2976;49.764;9.796;2024-03-23T12:18:14;2.23;;;1.53;;
5900;SDS011;2976;49.764;9.796;2024-03-23T12:20:40;1.20;;;1.10;;
5900;SDS011;2976;49.764;9.796;2024-03-23T12:23:06;2.00;;;0.93;;
5900;SDS011;2976;49.764;9.796;2024-03-23T12:25:34;6.00;;;1.47;;
5900;SDS011;2976;49.764;9.796;2024-03-23T12:28:00;4.53;;;1.37;;
5900;SDS011;2976;49.764;9.796;2024-03-23T12:30:26;8.37;;;1.97;;
5900;SDS011;2976;49.764;9.796;2024-03-23T12:32:51;3.97;;;1.33;;
5900;SDS011;2976;49.764;9.796;2024-03-23T12:35:17;8.90;;;1.57;;
5900;SDS011;2976;49.764;9.796;2024-03-23T12:37:43;3.00;;;1.63;;
5900;SDS011;2976;49.764;9.796;2024-03-23T12:40:09;7.10;;;1.70;;
5900;SDS011;2976;49.764;9.796;2024-03-23T12:42:35;13.10;;;1.90;;
5900;SDS011;2976;49.764;9.796;2024-03-23T12:45:00;3.43;;;1.50;;
5900;SDS011;2976;49.764;9.796;2024-03-23T12:47:26;1.33;;;0.80;;
5900;SDS011;2976;49.764;9.796;2024-03-23T12:49:52;4.67;;;2.23;;
5900;SDS011;2976;49.764;9.796;2024-03-23T12:52:17;3.00;;;0.90;;
5900;SDS011;2976;49.764;9.796;2024-03-23T12:54:45;2.10;;;1.43;;
5900;SDS011;2976;49.764;9.796;2024-03-23T12:57:10;1.00;;;0.90;;
5900;SDS011;2976;49.764;9.796;2024-03-23T12:59:36;3.13;;;1.50;;
5900;SDS011;2976;49.764;9.796;2024-03-23T13:02:02;1.47;;;1.20;;
5900;SDS011;2976;49.764;9.796;2024-03-23T13:04:27;3.47;;;1.63;;
5900;SDS011;2976;49.764;9.796;2024-03-23T13:06:53;4.60;;;1.57;;
5900;SDS011;2976;49.764;9.796;2024-03-23T13:09:18;12.73;;;1.50;;
5900;SDS011;2976;49.764;9.796;2024-03-23T13:11:44;4.47;;;1.80;;
5900;SDS011;2976;49.764;9.796;2024-03-23T13:14:09;1.23;;;1.20;;
5900;SDS011;2976;49.764;9.796;2024-03-23T13:16:35;3.77;;;2.10;;
5900;SDS011;2976;49.764;9.796;2024-03-23T13:19:00;3.13;;;1.53;;
5900;SDS011;2976;49.764;9.796;2024-03-23T13:21:26;4.80;;;1.30;;
5900;SDS011;2976;49.764;9.796;2024-03-23T13:23:52;4.47;;;1.60;;
5900;SDS011;2976;49.764;9.796;2024-03-23T13:26:17;4.50;;;1.70;;
5900;SDS011;2976;49.764;9.796;2024-03-23T13:28:43;1.30;;;1.20;;
5900;SDS011;2976;49.764;9.796;2024-03-23T13:31:09;3.03;;;1.00;;
5900;SDS011;2976;49.764;9.796;2024-03-23T13:33:35;2.03;;;1.67;;
5900;SDS011;2976;49.764;9.796;2024-03-23T13:36:01;2.73;;;1.40;;
5900;SDS011;2976;49.764;9.796;2024-03-23T13:38:28;8.03;;;1.77;;
5900;SDS011;2976;49.764;9.796;2024-03-23T13:40:57;9.40;;;1.90;;
5900;SDS011;2976;49.764;9.796;2024-03-23T13:43:24;4.27;;;1.37;;
5900;SDS011;2976;49.764;9.796;2024-03-23T13:45:54;3.27;;;1.50;;
5900;SDS011;2976;49.764;9.796;2024-03-23T13:48:24;3.10;;;1.30;;
5900;SDS011;2976;49.764;9.796;2024-03-23T13:51:03;2.50;;;1.40;;
5900;SDS011;2976;49.764;9.796;2024-03-23T13:53:30;4.30;;;1.30;;
5900;SDS011;2976;49.764;9.796;2024-03-23T13:55:57;7.50;;;1.83;;
5900;SDS011;2976;49.764;9.796;2024-03-23T13:58:23;1.03;;;1.00;;
5900;SDS011;2976;49.764;9.796;2024-03-23T14:00:52;3.60;;;1.10;;
5900;SDS011;2976;49.764;9.796;2024-03-23T14:03:18;7.30;;;1.70;;
5900;SDS011;2976;49.764;9.796;2024-03-23T14:05:43;7.17;;;2.50;;
5900;SDS011;2976;49.764;9.796;2024-03-23T14:08:10;5.30;;;1.70;;
5900;SDS011;2976;49.764;9.796;2024-03-23T14:10:36;3.90;;;1.30;;
5900;SDS011;2976;49.764;9.796;2024-03-23T14:13:05;2.00;;;1.10;;
5900;SDS011;2976;49.764;9.796;2024-03-23T14:15:31;1.10;;;0.90;;
5900;SDS011;2976;49.764;9.796;2024-03-23T14:17:57;4.00;;;1.30;;
5900;SDS011;2976;49.764;9.796;2024-03-23T14:20:23;2.00;;;0.90;;
5900;SDS011;2976;49.764;9.796;2024-03-23T14:22:49;3.40;;;1.47;;
5900;SDS011;2976;49.764;9.796;2024-03-23T14:25:15;1.23;;;0.83;;
5900;SDS011;2976;49.764;9.796;2024-03-23T14:27:40;1.60;;;1.07;;
5900;SDS011;2976;49.764;9.796;2024-03-23T14:30:08;2.50;;;0.87;;
5900;SDS011;2976;49.764;9.796;2024-03-23T14:32:34;3.60;;;1.30;;
5900;SDS011;2976;49.764;9.796;2024-03-23T14:35:01;5.20;;;1.40;;
5900;SDS011;2976;49.764;9.796;2024-03-23T14:37:27;1.43;;;1.30;;
5900;SDS011;2976;49.764;9.796;2024-03-23T14:39:54;2.73;;;1.10;;
5900;SDS011;2976;49.764;9.796;2024-03-23T14:42:21;5.20;;;2.30;;
5900;SDS011;2976;49.764;9.796;2024-03-23T14:44:47;3.57;;;1.00;;
5900;SDS011;2976;49.764;9.796;2024-03-23T14:47:12;2.10;;;0.80;;
5900;SDS011;2976;49.764;9.796;2024-03-23T14:49:38;1.20;;;0.83;;
5900;SDS011;2976;49.764;9.796;2024-03-23T14:52:03;0.87;;;0.83;;
5900;SDS011;2976;49.764;9.796;2024-03-23T14:54:29;1.67;;;0.97;;
5900;SDS011;2976;49.764;9.796;2024-03-23T14:56:55;2.50;;;0.90;;
5900;SDS011;2976;49.764;9.796;2024-03-23T14:59:23;2.77;;;0.80;;
5900;SDS011;2976;49.764;9.796;2024-03-23T15:01:49;2.60;;;0.90;;
5900;SDS011;2976;49.764;9.796;2024-03-23T15:04:14;1.67;;;0.90;;
5900;SDS011;2976;49.764;9.796;2024-03-23T15:06:40;0.67;;;0.67;;
5900;SDS011;2976;49.764;9.796;2024-03-23T15:09:07;0.70;;;0.70;;
5900;SDS011;2976;49.764;9.796;2024-03-23T15:11:36;4.87;;;0.73;;
5900;SDS011;2976;49.764;9.796;2024-03-23T15:14:02;1.57;;;0.83;;
5900;SDS011;2976;49.764;9.796;2024-03-23T15:16:27;1.30;;;0.83;;
5900;SDS011;2976;49.764;9.796;2024-03-23T15:18:53;0.60;;;0.60;;
5900;SDS011;2976;49.764;9.796;2024-03-23T15:21:18;2.03;;;1.07;;
5900;SDS011;2976;49.764;9.796;2024-03-23T15:23:47;2.10;;;0.97;;
5900;SDS011;2976;49.764;9.796;2024-03-23T15:26:13;3.10;;;0.80;;
5900;SDS011;2976;49.764;9.796;2024-03-23T15:28:39;0.90;;;0.70;;
5900;SDS011;2976;49.764;9.796;2024-03-23T15:31:22;0.40;;;0.40;;
5900;SDS011;2976;49.764;9.796;2024-03-23T15:33:49;0.70;;;0.60;;
5900;SDS011;2976;49.764;9.796;2024-03-23T15:36:14;0.97;;;0.90;;
5900;SDS011;2976;49.764;9.796;2024-03-23T15:38:40;1.63;;;1.00;;
5900;SDS011;2976;49.764;9.796;2024-03-23T15:41:06;1.83;;;0.90;;
5900;SDS011;2976;49.764;9.796;2024-03-23T15:43:33;2.40;;;0.77;;
5900;SDS011;2976;49.764;9.796;2024-03-23T15:46:00;1.50;;;0.90;;
5900;SDS011;2976;49.764;9.796;2024-03-23T15:48:27;2.97;;;1.83;;
5900;SDS011;2976;49.764;9.796;2024-03-23T15:50:53;1.13;;;0.80;;
5900;SDS011;2976;49.764;9.796;2024-03-23T15:53:20;3.03;;;0.60;;
5900;SDS011;2976;49.764;9.796;2024-03-23T15:55:56;1.63;;;1.23;;
5900;SDS011;2976;49.764;9.796;2024-03-23T15:58:22;0.70;;;0.43;;
5900;SDS011;2976;49.764;9.796;2024-03-23T16:00:58;0.70;;;0.50;;
5900;SDS011;2976;49.764;9.796;2024-03-23T16:03:28;8.13;;;0.93;;
5900;SDS011;2976;49.764;9.796;2024-03-23T16:05:57;3.43;;;1.13;;